^^
LKKV - Karlovy Vary, Czech Republic
Entfernung von Station: O 36km
Aktualisierung: 21.10.2018 10:00
teils wolkig
teils wolkig
 Wind von WNW
Wind: WNW 11 km/h
Temperatur: 7°C
Windkühle: 5°C
Taupunkt: 5°C
Luftfeuchte: 87%
Luftdruck: 1029 hPa
Wolken: teils wolkig
Sicht: 10 km
Wolken Details: teils wolkig 914 m
2018/10/21 08:00 LKKV 210800Z 29006KT 9999 FEW030 07/05 Q1029
EDQM - Hof, Germany
Entfernung von Station: W 40km
Aktualisierung: 21.10.2018 09:50
Nebel, Bedeckt
Nebel, Bedeckt
 Wind von veränderlich
Wind: veränderlich 4 km/h
Temperatur: 7°C
Taupunkt: 5°C
Luftfeuchte: 87%
Luftdruck: 1029 hPa
Zusammenfassung: Nebel
Wolken: Bedeckt
Sicht: 5 km
Wolken Details: wolkig 213 m
stark bewölkt 274 m
Bedeckt 305 m
2018/10/21 07:50 EDQM 210750Z VRB02KT 5000 BR SCT007 BKN009 OVC010 07/05 Q1029
 
ETIC - Grafenwoehr, Germany
Entfernung von Station: SSW 72km
Aktualisierung: 21.10.2018 09:56
Klar
Klar
 Wind von calm
Wind: Windstill
Temperatur: 7°C
Taupunkt: 6°C
Luftfeuchte: 93%
Luftdruck: 1029.1 hPa
Wolken: Klar
Sicht: 10 km
2018/10/21 07:56 ETIC 210756Z AUTO 00000KT 9999 CLR 07/06 A3039 RMK AO2 SLP304 T00700059 $
EDAC - Altenburg-Nobitz, Germany
Entfernung von Station: N 80km
Aktualisierung: 21.10.2018 09:50
stark bewölkt
stark bewölkt
 Wind von veränderlich
Wind: veränderlich 2 km/h
Temperatur: 10°C
Taupunkt: 6°C
Luftfeuchte: 76%
Luftdruck: 1030 hPa
Wolken: stark bewölkt
Sicht: 10 km
Wolken Details: wolkig 366 m
stark bewölkt 549 m
2018/10/21 07:50 EDAC 210750Z VRB01KT 9999 SCT012 BKN018 10/06 Q1030
 
LKLN - Plzen Line, Czech Republic
Entfernung von Station: SO 88km
Aktualisierung: 21.10.2018 10:00
Bedeckt
Bedeckt
 Wind von calm
Wind: Windstill
Temperatur: 7°C
Taupunkt: 5°C
Luftfeuchte: 87%
Luftdruck: 1029 hPa
Wolken: Bedeckt
Sicht: 10 km
Wolken Details: Bedeckt 701 m
2018/10/21 08:00 LKLN 210800Z AUTO 00000KT 9999 OVC023 07/05 Q1029
ETIH - Hohenfels (usa-A, Germany
Entfernung von Station: SSW 124km
Aktualisierung: 21.10.2018 09:56
Klar
Klar
 Wind von calm
Wind: Windstill
Temperatur: 8°C
Taupunkt: 7°C
Luftfeuchte: 93%
Luftdruck: 1029.5 hPa
Wolken: Klar
Sicht: 10 km
2018/10/21 07:56 ETIH 210756Z AUTO 00000KT 9999 CLR 08/07 A3040 RMK AO2 SLP307 T00800066 $
 
EDDE - Erfurt/Bindersleben, Germany
Entfernung von Station: NW 129km
Aktualisierung: 21.10.2018 09:50
stark bewölkt
stark bewölkt
 Wind von SSW
Wind: SSW 11 km/h
Temperatur: 6°C
Windkühle: 4°C
Taupunkt: 4°C
Luftfeuchte: 87%
Luftdruck: 1029 hPa
Wolken: stark bewölkt
Sicht: 10 km
Wolken Details: wolkig 518 m
stark bewölkt 1219 m
2018/10/21 07:50 EDDE 210750Z 21006KT 9999 SCT017 BKN040 06/04 Q1029 NOSIG
EDDP - Leipzig/Schkeudidtz, Germany
Entfernung von Station: N 129km
Aktualisierung: 21.10.2018 09:50
teils wolkig
teils wolkig
 Wind von NNW
Wind: NNW 6 km/h
Temperatur: 10°C
Taupunkt: 7°C
Luftfeuchte: 82%
Luftdruck: 1029 hPa
Wolken: teils wolkig
Sicht: 10 km
Wolken Details: teils wolkig 1006 m
2018/10/21 07:50 EDDP 210750Z 34003KT 9999 FEW033 10/07 Q1029 NOSIG
 
EDDN - Nuernberg, Germany
Entfernung von Station: SW 130km
Aktualisierung: 21.10.2018 09:50
Klar
Klar
 Wind von veränderlich
Wind: veränderlich 2 km/h
Temperatur: 7°C
Taupunkt: 4°C
Luftfeuchte: 81%
Luftdruck: 1030 hPa
Zusammenfassung: Klar
Sicht: mehr als 10 km
2018/10/21 07:50 EDDN 210750Z VRB01KT CAVOK 07/04 Q1030 NOSIG
LKPR - Prague/Ruzyne, Czech Republic
Entfernung von Station: O 133km
Aktualisierung: 21.10.2018 10:00
stark bewölkt
stark bewölkt
 Wind von NW
Wind: NW 13 km/h
Temperatur: 9°C
Windkühle: 7°C
Taupunkt: 5°C
Luftfeuchte: 76%
Luftdruck: 1029 hPa
Wolken: stark bewölkt
Sicht: 10 km
Wolken Details: teils wolkig 914 m
stark bewölkt 1128 m
2018/10/21 08:00 LKPR 210800Z 32007KT 280V340 9999 FEW030 BKN037 09/05 Q1029 NOSIG
 
EDDC - Dresden/Klotzsche, Germany
Entfernung von Station: NO 134km
Aktualisierung: 21.10.2018 09:50
wolkig
wolkig
 Wind von NW
Wind: NW 7 km/h
Temperatur: 9°C
Windkühle: 8°C
Taupunkt: 5°C
Luftfeuchte: 76%
Luftdruck: 1029 hPa
Wolken: wolkig
Sicht: 10 km
Wolken Details: wolkig 1280 m
2018/10/21 07:50 EDDC 210750Z 31004KT 9999 SCT042 09/05 Q1029 NOSIG
Besucherstatistik
Besucher gesamt: 1.134.214
Besucher heute: 213
Besucher gestern: 568
gerade online: 13
Seitenaufrufe diese Seite: 3.813
counter Statistiken